Time;durP1;ratioP1;P1;durP2;ratioP2;P2;SDS_P1;SDS_P2;PMS_P1;PMS_P2;Temp;Humidity;BMP_temperature;BMP_pressure;BME280_temperature;BME280_humidity;BME280_pressure;Samples;Min_cycle;Max_cycle;Signal;HPM_P1;HPM_P2
2021/07/31 00:00:36;;;;;;;;;;;;;;;28.83;39.54;96821.19;5007007;28;1615;-51
2021/07/31 00:03:01;;;;;;;;;;;;;;;28.67;40.09;96815.81;5010812;28;1470;-50
2021/07/31 00:05:26;;;;;;;;;;;;;;;28.43;40.70;96832.44;5012232;28;1142;-51
2021/07/31 00:07:51;;;;;;;;;;;;;;;28.38;40.55;96830.28;5010724;28;1967;-51
2021/07/31 00:10:17;;;;;;;;;;;;;;;28.51;40.48;96832.47;5009556;28;1626;-51
2021/07/31 00:12:42;;;;;;;;;;;;;;;28.57;40.45;96827.38;5010722;28;1894;-51
2021/07/31 00:15:07;;;;;;;;;;;;;;;28.48;40.78;96823.03;5010992;28;1275;-51
2021/07/31 00:17:33;;;;;;;;;;;;;;;28.57;40.29;96829.22;5012865;28;1126;-51
2021/07/31 00:19:58;;;;;;;;;;;;;;;28.61;40.25;96825.28;5012014;28;1154;-51
2021/07/31 00:22:23;;;;;;;;;;;;;;;28.74;39.96;96827.47;5011381;28;1603;-51
2021/07/31 00:24:48;;;;;;;;;;;;;;;28.56;40.46;96817.78;5011498;28;1358;-51
2021/07/31 00:27:13;;;;;;;;;;;;;;;28.45;40.37;96826.00;5011844;28;1587;-51
2021/07/31 00:29:39;;;;;;;;;;;;;;;28.69;40.11;96824.47;5010627;28;1434;-51
2021/07/31 00:32:04;;;;;;;;;;;;;;;28.78;39.89;96828.84;5011516;28;1902;-51
2021/07/31 00:34:29;;;;;;;;;;;;;;;28.58;40.40;96842.31;5010965;28;1382;-50
2021/07/31 00:36:54;;;;;;;;;;;;;;;28.73;39.80;96831.94;5008904;28;1619;-50
2021/07/31 00:39:19;;;;;;;;;;;;;;;28.62;40.36;96835.72;5010867;28;1482;-51
2021/07/31 00:41:45;;;;;;;;;;;;;;;28.72;40.21;96827.63;5010942;28;1571;-51
2021/07/31 00:44:10;;;;;;;;;;;;;;;28.59;40.10;96833.34;5011445;28;1162;-51
2021/07/31 00:46:35;;;;;;;;;;;;;;;28.60;40.36;96820.97;5012215;28;1099;-50
2021/07/31 00:49:00;;;;;;;;;;;;;;;28.67;40.20;96832.56;5010376;28;1535;-51
2021/07/31 00:54:06;;;;;;;;;;;;;;;28.57;40.44;96845.13;5046986;28;1617;-52
2021/07/31 00:56:31;;;;;;;;;;;;;;;28.62;40.50;96845.50;5044610;28;1609;-51
2021/07/31 00:58:57;;;;;;;;;;;;;;;28.66;40.34;96852.13;5035907;28;1145;-53
2021/07/31 01:01:22;;;;;;;;;;;;;;;28.59;40.18;96848.44;5043540;28;1618;-51
2021/07/31 01:03:47;;;;;;;;;;;;;;;28.62;40.29;96843.69;5028318;28;1307;-53
2021/07/31 01:06:12;;;;;;;;;;;;;;;28.70;40.12;96844.72;5028547;28;1598;-52
2021/07/31 01:08:38;;;;;;;;;;;;;;;28.71;40.07;96843.72;5023076;28;1193;-52
2021/07/31 01:11:03;;;;;;;;;;;;;;;28.58;40.36;96841.47;5017610;28;1571;-51
2021/07/31 01:13:28;;;;;;;;;;;;;;;28.59;40.10;96846.63;5019690;28;1910;-53
2021/07/31 01:15:57;;;;;;;;;;;;;;;28.68;40.07;96836.91;5019007;28;1342;-54
2021/07/31 01:18:22;;;;;;;;;;;;;;;28.59;40.41;96845.78;5031619;28;1374;-53
2021/07/31 01:20:48;;;;;;;;;;;;;;;28.57;40.45;96831.88;5029797;28;1613;-54
2021/07/31 01:23:13;;;;;;;;;;;;;;;28.53;40.32;96841.97;5031194;28;1369;-54
2021/07/31 01:25:38;;;;;;;;;;;;;;;28.79;39.95;96838.44;5026178;28;1573;-54
2021/07/31 01:28:03;;;;;;;;;;;;;;;28.66;40.19;96852.13;5031285;28;1156;-54
2021/07/31 01:30:28;;;;;;;;;;;;;;;28.72;40.21;96853.34;5026765;28;1614;-55
2021/07/31 01:32:54;;;;;;;;;;;;;;;28.64;40.31;96838.22;5030718;28;1975;-52
2021/07/31 01:35:19;;;;;;;;;;;;;;;28.57;40.51;96837.16;5027128;28;1538;-53
2021/07/31 01:37:44;;;;;;;;;;;;;;;28.60;40.44;96843.00;5031263;28;1140;-53
2021/07/31 01:40:10;;;;;;;;;;;;;;;28.79;39.91;96833.97;5030015;28;1397;-53
2021/07/31 01:42:35;;;;;;;;;;;;;;;28.78;40.14;96837.63;5029013;28;1771;-53
2021/07/31 01:45:00;;;;;;;;;;;;;;;28.63;40.29;96840.03;5020994;28;1387;-53
2021/07/31 01:47:25;;;;;;;;;;;;;;;28.64;40.08;96841.69;5030145;28;1165;-53
2021/07/31 01:49:50;;;;;;;;;;;;;;;28.44;40.56;96836.75;5028786;28;1605;-53
2021/07/31 01:52:16;;;;;;;;;;;;;;;28.56;40.72;96838.16;5029309;28;1947;-53
2021/07/31 01:54:41;;;;;;;;;;;;;;;28.71;40.11;96827.81;5030350;28;1291;-53
2021/07/31 01:57:06;;;;;;;;;;;;;;;28.65;40.46;96834.56;5028015;28;1546;-55
2021/07/31 01:59:31;;;;;;;;;;;;;;;28.74;40.09;96830.94;5030756;28;1161;-52
2021/07/31 02:01:56;;;;;;;;;;;;;;;28.68;40.37;96834.25;5029077;28;1379;-52
2021/07/31 02:04:22;;;;;;;;;;;;;;;28.49;40.69;96832.66;5028534;28;1597;-54
2021/07/31 02:06:47;;;;;;;;;;;;;;;28.42;40.80;96833.44;5029731;28;1214;-54
2021/07/31 02:09:12;;;;;;;;;;;;;;;28.48;40.68;96832.81;5028577;28;1294;-52
2021/07/31 02:11:37;;;;;;;;;;;;;;;28.45;40.70;96833.97;5027304;28;1973;-53
2021/07/31 02:14:03;;;;;;;;;;;;;;;28.74;40.09;96835.44;5029255;28;1185;-53
2021/07/31 02:16:28;;;;;;;;;;;;;;;28.57;40.83;96827.38;5027462;28;1414;-51
2021/07/31 02:18:53;;;;;;;;;;;;;;;28.57;40.37;96831.88;5027864;28;1561;-54
2021/07/31 02:21:18;;;;;;;;;;;;;;;28.52;40.75;96832.34;5028401;28;1335;-52
2021/07/31 02:23:44;;;;;;;;;;;;;;;28.48;40.75;96831.00;5029834;28;1205;-53
2021/07/31 02:26:09;;;;;;;;;;;;;;;28.43;40.82;96827.97;5027501;28;1661;-52
2021/07/31 02:28:34;;;;;;;;;;;;;;;28.38;41.03;96822.31;5028036;28;1592;-53
2021/07/31 02:30:59;;;;;;;;;;;;;;;28.35;41.20;96827.91;5029149;28;1310;-52
2021/07/31 02:33:24;;;;;;;;;;;;;;;28.48;40.73;96816.91;5028068;28;1898;-53
2021/07/31 02:35:50;;;;;;;;;;;;;;;28.59;40.71;96824.56;5028521;28;1480;-54
2021/07/31 02:38:15;;;;;;;;;;;;;;;28.65;40.53;96823.94;5029453;28;1197;-53
2021/07/31 02:40:40;;;;;;;;;;;;;;;28.61;40.56;96826.09;5025255;28;1724;-55
2021/07/31 02:43:05;;;;;;;;;;;;;;;28.50;40.80;96836.97;5030407;28;1375;-54
2021/07/31 02:45:30;;;;;;;;;;;;;;;28.50;40.80;96829.00;5029553;28;1307;-54
2021/07/31 02:47:56;;;;;;;;;;;;;;;28.57;40.87;96838.00;5030317;28;1122;-53
2021/07/31 02:50:21;;;;;;;;;;;;;;;28.61;40.37;96828.75;5028038;28;1601;-53
2021/07/31 02:52:46;;;;;;;;;;;;;;;28.56;40.85;96823.06;5029314;28;1906;-52
2021/07/31 02:55:11;;;;;;;;;;;;;;;28.57;40.71;96827.38;5027117;28;1484;-54
2021/07/31 02:57:36;;;;;;;;;;;;;;;28.63;40.67;96810.84;5027834;28;1740;-54
2021/07/31 03:00:02;;;;;;;;;;;;;;;28.51;40.88;96828.00;5028725;28;1177;-53
2021/07/31 03:02:28;;;;;;;;;;;;;;;28.64;40.56;96828.44;5023598;28;1595;-53
2021/07/31 03:04:53;;;;;;;;;;;;;;;28.62;40.56;96825.09;5029705;28;1189;-53
2021/07/31 03:07:18;;;;;;;;;;;;;;;28.49;40.57;96830.00;5032944;28;1129;-54
2021/07/31 03:09:44;;;;;;;;;;;;;;;28.47;40.80;96829.31;5032215;28;1589;-53
2021/07/31 03:12:09;;;;;;;;;;;;;;;28.43;40.96;96825.31;5031078;28;1981;-54
2021/07/31 03:14:34;;;;;;;;;;;;;;;28.54;40.73;96826.88;5033706;28;1197;-55
2021/07/31 03:16:59;;;;;;;;;;;;;;;28.60;40.51;96821.78;5032337;28;1412;-54
2021/07/31 03:19:24;;;;;;;;;;;;;;;28.51;40.69;96829.84;5032697;28;1625;-53
2021/07/31 03:21:50;;;;;;;;;;;;;;;28.47;41.05;96829.31;5032984;28;1169;-52
2021/07/31 03:24:15;;;;;;;;;;;;;;;28.52;40.85;96831.53;5034015;28;1116;-51
2021/07/31 03:26:40;;;;;;;;;;;;;;;28.77;39.97;96824.53;5030705;28;1609;-54
2021/07/31 03:29:05;;;;;;;;;;;;;;;28.53;40.73;96822.56;5032650;28;1117;-55
2021/07/31 03:31:30;;;;;;;;;;;;;;;28.57;40.85;96821.25;5031647;28;1930;-53
2021/07/31 03:33:56;;;;;;;;;;;;;;;28.40;41.16;96822.97;5029744;28;1550;-53
2021/07/31 03:36:21;;;;;;;;;;;;;;;28.51;41.04;96828.00;5032114;28;1488;-54
2021/07/31 03:38:46;;;;;;;;;;;;;;;28.42;40.93;96822.81;5031922;28;1204;-51
2021/07/31 03:41:11;;;;;;;;;;;;;;;28.64;40.40;96831.06;5030694;28;1537;-53
2021/07/31 03:43:36;;;;;;;;;;;;;;;28.46;40.82;96832.97;5032409;28;1540;-54
2021/07/31 03:46:06;;;;;;;;;;;;;;;28.79;40.29;96831.31;5032821;28;1133;-52
2021/07/31 03:48:31;;;;;;;;;;;;;;;28.53;40.46;96836.66;5029432;28;1671;-53
2021/07/31 03:50:56;;;;;;;;;;;;;;;28.53;40.77;96828.72;5031966;28;1350;-54
2021/07/31 03:53:21;;;;;;;;;;;;;;;28.68;40.40;96830.78;5032064;28;1957;-54
2021/07/31 03:55:47;;;;;;;;;;;;;;;28.70;40.37;96837.59;5031741;28;1619;-52
2021/07/31 03:58:12;;;;;;;;;;;;;;;28.62;40.38;96837.53;5031024;28;1607;-54
2021/07/31 04:00:40;;;;;;;;;;;;;;;28.62;40.59;96832.22;5031334;28;1176;-53
2021/07/31 04:03:06;;;;;;;;;;;;;;;28.54;40.77;96833.03;5031137;28;1445;-54
2021/07/31 04:05:31;;;;;;;;;;;;;;;28.72;40.21;96829.47;5030479;28;1740;-55
2021/07/31 04:07:56;;;;;;;;;;;;;;;28.56;40.83;96831.03;5031710;28;1180;-54
2021/07/31 04:10:22;;;;;;;;;;;;;;;28.58;40.57;96838.81;5027257;28;1679;-51
2021/07/31 04:12:47;;;;;;;;;;;;;;;28.64;40.35;96841.69;5031317;28;1905;-54
2021/07/31 04:15:12;;;;;;;;;;;;;;;28.35;41.01;96846.47;5032034;28;1208;-54
2021/07/31 04:17:37;;;;;;;;;;;;;;;28.65;40.51;96846.00;5031861;28;1275;-52
2021/07/31 04:20:03;;;;;;;;;;;;;;;28.58;40.67;96842.31;5030638;28;1605;-55
2021/07/31 04:22:28;;;;;;;;;;;;;;;28.63;40.59;96848.00;5030908;28;1413;-52
2021/07/31 04:24:53;;;;;;;;;;;;;;;28.61;40.53;96846.50;5032431;28;1129;-53
2021/07/31 04:27:19;;;;;;;;;;;;;;;28.60;40.57;96853.63;5030493;28;1581;-51
2021/07/31 04:29:44;;;;;;;;;;;;;;;28.55;40.84;96850.59;5032396;28;1326;-52
2021/07/31 04:32:09;;;;;;;;;;;;;;;28.44;41.06;96861.47;5030386;28;1891;-51
2021/07/31 04:34:34;;;;;;;;;;;;;;;28.53;40.79;96865.84;5031078;28;1235;-53
2021/07/31 04:37:00;;;;;;;;;;;;;;;28.50;40.87;96862.66;5027062;28;1724;-53
2021/07/31 04:39:25;;;;;;;;;;;;;;;28.63;40.35;96869.22;5031470;28;1245;-54
2021/07/31 04:41:50;;;;;;;;;;;;;;;28.63;40.36;96869.22;5026252;28;1652;-53
2021/07/31 04:44:15;;;;;;;;;;;;;;;28.88;40.35;96864.03;5032116;28;1042;-54
2021/07/31 04:46:40;;;;;;;;;;;;;;;28.58;40.83;96882.09;5030918;28;1236;-55
2021/07/31 04:49:06;;;;;;;;;;;;;;;28.49;41.09;96876.91;5029412;28;1620;-52
2021/07/31 04:51:31;;;;;;;;;;;;;;;28.46;41.16;96861.31;5032142;28;1137;-53
2021/07/31 04:53:56;;;;;;;;;;;;;;;28.55;41.03;96863.03;5031166;28;1907;-52
2021/07/31 04:56:21;;;;;;;;;;;;;;;28.54;40.74;96869.31;5026791;28;1590;-53
2021/07/31 04:58:46;;;;;;;;;;;;;;;28.54;40.78;96866.69;5029231;28;1345;-52
2021/07/31 05:01:12;;;;;;;;;;;;;;;28.55;40.65;96860.38;5030543;28;1553;-54
2021/07/31 05:03:37;;;;;;;;;;;;;;;28.47;41.05;96855.84;5029858;28;1405;-51
2021/07/31 05:06:08;;;;;;;;;;;;;;;28.46;40.77;96861.31;5028297;28;1590;-53
2021/07/31 05:08:33;;;;;;;;;;;;;;;28.44;41.04;96866.78;5031718;28;1299;-51
2021/07/31 05:10:58;;;;;;;;;;;;;;;28.37;41.39;96863.09;5030363;28;2126;-53
2021/07/31 05:13:23;;;;;;;;;;;;;;;28.41;40.98;96867.06;5031567;28;1977;-52
2021/07/31 05:15:49;;;;;;;;;;;;;;;28.56;40.72;96862.03;5030246;28;1236;-54
2021/07/31 05:18:14;;;;;;;;;;;;;;;28.54;40.73;96875.47;5030797;28;1178;-53
2021/07/31 05:20:39;;;;;;;;;;;;;;;28.38;41.29;96871.88;5028183;28;1609;-54
2021/07/31 05:23:05;;;;;;;;;;;;;;;28.46;41.03;96872.75;5031304;28;1332;-55
2021/07/31 05:25:30;;;;;;;;;;;;;;;28.46;41.00;96878.06;5029061;28;1605;-54
2021/07/31 05:27:55;;;;;;;;;;;;;;;28.48;40.88;96876.06;5028920;28;1385;-54
2021/07/31 05:30:20;;;;;;;;;;;;;;;28.41;40.97;96872.38;5027761;28;1459;-54
2021/07/31 05:32:46;;;;;;;;;;;;;;;28.58;40.64;96881.28;5029730;28;1961;-54
2021/07/31 05:35:11;;;;;;;;;;;;;;;28.58;40.77;96878.63;5028121;28;1588;-54
2021/07/31 05:37:36;;;;;;;;;;;;;;;28.69;40.71;96877.53;5029637;28;1512;-53
2021/07/31 05:40:01;;;;;;;;;;;;;;;28.51;40.80;96866.97;5031576;28;1235;-52
2021/07/31 05:42:27;;;;;;;;;;;;;;;28.43;41.26;96875.69;5019491;28;1606;-54
2021/07/31 05:44:56;;;;;;;;;;;;;;;28.65;40.73;96872.53;5029254;28;1428;-53
2021/07/31 05:47:24;;;;;;;;;;;;;;;28.67;40.42;96874.19;5030456;28;1184;-52
2021/07/31 05:49:49;;;;;;;;;;;;;;;28.55;40.88;96877.13;5029649;28;1257;-52
2021/07/31 05:52:14;;;;;;;;;;;;;;;28.46;40.96;96878.06;5028896;28;1894;-53
2021/07/31 05:54:39;;;;;;;;;;;;;;;28.41;41.11;96879.50;5030457;28;1126;-52
2021/07/31 05:57:05;;;;;;;;;;;;;;;28.43;41.05;96875.69;5027609;28;1585;-51
2021/07/31 05:59:30;;;;;;;;;;;;;;;28.44;41.00;96877.41;5030668;28;1185;-55
2021/07/31 06:01:55;;;;;;;;;;;;;;;28.57;40.72;96885.75;5027946;28;1368;-54
2021/07/31 06:04:20;;;;;;;;;;;;;;;28.52;40.73;96885.41;5029280;28;1684;-53
2021/07/31 06:06:46;;;;;;;;;;;;;;;28.51;40.75;96883.72;5030050;28;1129;-54
2021/07/31 06:09:11;;;;;;;;;;;;;;;28.55;40.95;96882.44;5030219;28;1607;-53
2021/07/31 06:11:36;;;;;;;;;;;;;;;28.39;41.09;96882.31;5028109;28;1980;-51
2021/07/31 06:14:01;;;;;;;;;;;;;;;28.43;41.24;96880.19;5027899;28;1389;-52
2021/07/31 06:16:27;;;;;;;;;;;;;;;28.54;41.15;96882.59;5029968;28;1212;-53
2021/07/31 06:18:52;;;;;;;;;;;;;;;28.48;40.98;96877.91;5029514;28;1302;-51
2021/07/31 06:21:18;;;;;;;;;;;;;;;28.48;40.96;96876.06;5028496;28;1597;-54
2021/07/31 06:23:43;;;;;;;;;;;;;;;28.45;40.93;96876.41;5028685;28;1370;-51
2021/07/31 06:26:09;;;;;;;;;;;;;;;28.67;40.42;96869.72;5028794;28;1566;-54
2021/07/31 06:28:34;;;;;;;;;;;;;;;28.58;40.58;96870.66;5029374;28;1256;-52
2021/07/31 06:30:59;;;;;;;;;;;;;;;28.59;40.58;96878.47;5030534;28;1243;-52
2021/07/31 06:33:24;;;;;;;;;;;;;;;28.42;41.21;96876.69;5029647;28;1902;-52
2021/07/31 06:35:49;;;;;;;;;;;;;;;28.56;40.66;96877.94;5029273;28;1768;-53
2021/07/31 06:38:15;;;;;;;;;;;;;;;28.55;40.72;96876.28;5030332;28;1117;-54
2021/07/31 06:40:41;;;;;;;;;;;;;;;28.38;41.43;96870.06;5025624;28;1585;-54
2021/07/31 06:43:06;;;;;;;;;;;;;;;28.54;41.02;96879.94;5028985;28;1394;-54
2021/07/31 06:45:32;;;;;;;;;;;;;;;28.65;40.86;96896.41;5027806;28;1357;-54
2021/07/31 06:47:57;;;;;;;;;;;;;;;28.65;40.64;96885.81;5029270;28;1019;-54
2021/07/31 06:50:22;;;;;;;;;;;;;;;28.44;41.02;96889.78;5027808;28;1644;-54
2021/07/31 06:52:48;;;;;;;;;;;;;;;28.48;40.90;96885.84;5048105;22;2021;-51
2021/07/31 06:55:13;;;;;;;;;;;;;;;28.42;41.43;96889.13;5007982;28;1331;-49
2021/07/31 06:57:38;;;;;;;;;;;;;;;28.44;41.24;96884.50;5007942;28;2018;-52
2021/07/31 07:00:04;;;;;;;;;;;;;;;28.35;41.11;96894.22;5008915;28;1354;-51
2021/07/31 07:02:29;;;;;;;;;;;;;;;28.50;40.82;96897.97;5000762;28;1515;-51
2021/07/31 07:04:54;;;;;;;;;;;;;;;28.53;41.00;96897.69;4989995;28;1130;-51
2021/07/31 07:07:19;;;;;;;;;;;;;;;28.50;40.99;96894.47;4988759;28;1510;-51
2021/07/31 07:09:45;;;;;;;;;;;;;;;28.73;40.29;96887.66;4990133;28;1313;-51
2021/07/31 07:12:10;;;;;;;;;;;;;;;28.43;41.07;96885.47;4986746;28;2013;-50
2021/07/31 07:14:36;;;;;;;;;;;;;;;28.58;40.52;96884.75;4987582;28;1301;-51
2021/07/31 07:17:03;;;;;;;;;;;;;;;28.46;41.19;96883.38;4990500;28;1126;-51
2021/07/31 07:19:28;;;;;;;;;;;;;;;28.70;40.43;96893.31;4988396;28;1123;-51
2021/07/31 07:21:54;;;;;;;;;;;;;;;28.38;41.12;96895.75;4988634;28;1740;-51
2021/07/31 07:24:19;;;;;;;;;;;;;;;28.51;41.00;96896.97;4989314;28;1501;-49
2021/07/31 07:26:44;;;;;;;;;;;;;;;28.58;40.87;96892.72;4988281;28;1657;-51
2021/07/31 07:29:09;;;;;;;;;;;;;;;28.67;40.54;96892.75;4990156;28;1130;-51
2021/07/31 07:31:34;;;;;;;;;;;;;;;28.46;41.20;96899.28;4990227;28;1249;-51
2021/07/31 07:34:00;;;;;;;;;;;;;;;28.61;40.99;96904.84;4989085;28;1961;-51
2021/07/31 07:36:25;;;;;;;;;;;;;;;28.51;40.99;96890.84;4988623;28;1545;-51
2021/07/31 07:38:50;;;;;;;;;;;;;;;28.52;40.87;96898.66;4989300;28;1309;-51
2021/07/31 07:41:16;;;;;;;;;;;;;;;28.51;40.92;96902.28;4988795;28;1687;-51
2021/07/31 07:43:41;;;;;;;;;;;;;;;28.33;41.39;96898.84;4988411;28;1340;-51
2021/07/31 07:46:06;;;;;;;;;;;;;;;28.37;41.26;96905.53;4990361;28;1244;-51
2021/07/31 07:48:32;;;;;;;;;;;;;;;28.45;41.09;96902.94;4989942;28;1130;-51
2021/07/31 07:50:57;;;;;;;;;;;;;;;28.51;40.83;96896.97;4988933;28;1600;-51
2021/07/31 07:53:22;;;;;;;;;;;;;;;28.41;41.18;96892.75;4988259;28;1963;-51
2021/07/31 07:55:47;;;;;;;;;;;;;;;28.52;41.00;96893.38;4992217;28;1557;-48
2021/07/31 07:58:13;;;;;;;;;;;;;;;28.57;40.76;96898.19;4993412;28;997;-51
2021/07/31 08:00:38;;;;;;;;;;;;;;;28.62;40.50;96894.09;4992193;28;1360;-51
2021/07/31 08:03:03;;;;;;;;;;;;;;;28.62;40.50;96887.94;4992896;28;1393;-51
2021/07/31 08:05:29;;;;;;;;;;;;;;;28.65;40.42;96888.44;4991071;28;1577;-51
2021/07/31 08:07:54;;;;;;;;;;;;;;;28.46;41.01;96877.22;4993564;28;1281;-51
2021/07/31 08:10:19;;;;;;;;;;;;;;;28.42;41.10;96883.81;4991524;28;1565;-47
2021/07/31 08:12:44;;;;;;;;;;;;;;;28.55;40.64;96881.59;4992411;28;1899;-51
2021/07/31 08:15:10;;;;;;;;;;;;;;;28.48;40.87;96878.72;4993188;28;1288;-51
2021/07/31 08:17:35;;;;;;;;;;;;;;;28.44;41.13;96879.19;4993443;28;1237;-51
2021/07/31 08:20:00;;;;;;;;;;;;;;;28.56;40.75;96889.41;4991576;28;1732;-51
2021/07/31 08:22:25;;;;;;;;;;;;;;;28.49;40.92;96884.88;4992938;28;1405;-51
2021/07/31 08:24:50;;;;;;;;;;;;;;;28.33;41.57;96886.41;4989181;28;1579;-51
2021/07/31 08:27:15;;;;;;;;;;;;;;;28.52;40.78;96887.22;4989991;28;1844;-51
2021/07/31 08:29:41;;;;;;;;;;;;;;;28.52;40.97;96895.19;4991230;28;1509;-51
2021/07/31 08:32:06;;;;;;;;;;;;;;;28.50;41.02;96902.44;4991923;28;1902;-51
2021/07/31 08:34:31;;;;;;;;;;;;;;;28.68;40.66;96897.94;4990961;28;1608;-51
2021/07/31 08:37:01;;;;;;;;;;;;;;;28.60;40.89;96897.88;4991267;28;1115;-51
2021/07/31 08:39:27;;;;;;;;;;;;;;;28.49;41.11;96896.31;4991069;28;1397;-51
2021/07/31 08:41:52;;;;;;;;;;;;;;;28.54;40.79;96891.38;4991408;28;1609;-50
2021/07/31 08:44:18;;;;;;;;;;;;;;;28.34;41.32;96893.38;4991361;28;1465;-51
2021/07/31 08:46:43;;;;;;;;;;;;;;;28.44;41.09;96888.00;4992470;28;1181;-50
2021/07/31 08:49:08;;;;;;;;;;;;;;;28.53;41.10;96884.41;4974600;28;1146;-51
2021/07/31 08:51:33;;;;;;;;;;;;;;;28.67;40.71;96895.41;4972386;28;1599;-51
2021/07/31 08:54:02;;;;;;;;;;;;;;;28.58;40.67;96894.53;4992014;28;1906;-51
2021/07/31 08:56:27;;;;;;;;;;;;;;;28.56;40.79;96892.06;4990460;28;1556;-51
2021/07/31 08:58:52;;;;;;;;;;;;;;;28.48;40.94;96885.84;4992527;28;1191;-51
2021/07/31 09:01:17;;;;;;;;;;;;;;;28.47;40.83;96887.69;4992248;28;1391;-51
2021/07/31 09:03:53;;;;;;;;;;;;;;;28.42;41.18;96887.31;4990370;28;1522;-50
2021/07/31 09:06:28;;;;;;;;;;;;;;;28.36;41.24;96878.16;4990921;28;1604;-51
2021/07/31 09:08:53;;;;;;;;;;;;;;;28.72;40.61;96882.53;4991075;28;1059;-51
2021/07/31 09:11:19;;;;;;;;;;;;;;;28.64;40.58;96878.84;4986361;28;1606;-51
2021/07/31 09:13:44;;;;;;;;;;;;;;;28.49;40.96;96885.69;4991299;28;1972;-51
2021/07/31 09:16:11;;;;;;;;;;;;;;;28.54;40.86;96877.28;4973557;28;1243;-51
2021/07/31 09:18:42;;;;;;;;;;;;;;;28.55;40.89;96877.13;4991690;28;1486;-52
2021/07/31 09:21:14;;;;;;;;;;;;;;;28.56;40.72;96885.91;4990348;28;1716;-51
2021/07/31 09:23:47;;;;;;;;;;;;;;;28.67;40.77;96879.50;4990489;28;1566;-51
2021/07/31 09:26:38;;;;;;;;;;;;;;;28.56;41.08;96880.59;4990396;28;1592;-50
2021/07/31 09:29:08;;;;;;;;;;;;;;;28.70;40.53;96881.84;4986713;28;1927;-51
2021/07/31 09:31:35;;;;;;;;;;;;;;;28.56;40.92;96873.47;4988765;28;1469;-51
2021/07/31 09:34:02;;;;;;;;;;;;;;;28.43;41.08;96880.19;4991661;28;1973;-51
2021/07/31 09:36:34;;;;;;;;;;;;;;;28.52;41.20;96879.28;4986836;28;1594;-51
2021/07/31 09:38:59;;;;;;;;;;;;;;;28.50;41.20;96878.56;4992120;28;1103;-51
2021/07/31 09:41:24;;;;;;;;;;;;;;;28.62;40.74;96875.50;4990084;28;1557;-51
2021/07/31 09:43:58;;;;;;;;;;;;;;;28.49;41.04;96875.09;4990575;28;1310;-51
2021/07/31 09:46:30;;;;;;;;;;;;;;;28.43;41.04;96878.34;4990960;28;1534;-51
2021/07/31 09:48:59;;;;;;;;;;;;;;;28.52;40.80;96881.91;4991532;28;1180;-51
2021/07/31 09:51:34;;;;;;;;;;;;;;;28.41;41.22;96872.38;4988578;28;1578;-49
2021/07/31 09:54:00;;;;;;;;;;;;;;;28.51;41.03;96875.75;4990108;28;1906;-50
2021/07/31 09:56:25;;;;;;;;;;;;;;;28.45;41.16;96871.09;4988261;28;1647;-50
2021/07/31 09:58:50;;;;;;;;;;;;;;;28.42;41.46;96867.91;4979181;28;1535;-50
2021/07/31 10:01:15;;;;;;;;;;;;;;;28.50;41.03;96866.13;4972887;28;1198;-49
2021/07/31 10:03:41;;;;;;;;;;;;;;;28.32;41.32;96852.94;4973029;28;1389;-50
2021/07/31 10:06:07;;;;;;;;;;;;;;;28.35;41.05;96854.44;4972138;28;1601;-50
2021/07/31 10:08:33;;;;;;;;;;;;;;;28.41;41.11;96860.94;4991249;28;1221;-50
2021/07/31 10:10:58;;;;;;;;;;;;;;;28.48;41.13;96851.38;4970179;28;1591;-51
2021/07/31 10:13:23;;;;;;;;;;;;;;;28.42;41.15;96863.44;4990289;28;1914;-49
2021/07/31 10:15:48;;;;;;;;;;;;;;;28.37;41.27;96855.13;4972154;28;1526;-51
2021/07/31 10:18:15;;;;;;;;;;;;;;;28.40;41.21;96852.16;4973855;28;1265;-49
2021/07/31 10:20:40;;;;;;;;;;;;;;;28.50;40.98;96854.69;4988625;28;1696;-48
2021/07/31 10:23:07;;;;;;;;;;;;;;;28.50;40.85;96849.41;4990597;28;1393;-50
2021/07/31 10:25:32;;;;;;;;;;;;;;;28.52;40.68;96858.06;4987917;28;1643;-51
2021/07/31 10:28:17;;;;;;;;;;;;;;;28.49;40.98;96853.88;4991278;28;1779;-51
2021/07/31 10:30:43;;;;;;;;;;;;;;;28.29;41.40;96852.41;4990111;28;1126;-51
2021/07/31 10:33:28;;;;;;;;;;;;;;;28.41;41.06;96864.44;4989252;28;1973;-51
2021/07/31 10:35:53;;;;;;;;;;;;;;;28.34;41.21;96858.06;4990749;28;1161;-51
2021/07/31 10:38:19;;;;;;;;;;;;;;;28.64;40.73;96856.78;4971086;28;1562;-49
2021/07/31 10:40:44;;;;;;;;;;;;;;;28.60;40.67;96869.53;4970705;28;1536;-50
2021/07/31 10:43:11;;;;;;;;;;;;;;;28.56;40.77;96856.72;4986048;28;1599;-49
2021/07/31 10:45:36;;;;;;;;;;;;;;;28.47;41.07;96861.16;4985634;28;1682;-51
2021/07/31 10:48:02;;;;;;;;;;;;;;;28.40;41.43;96857.47;4989026;28;1597;-50
2021/07/31 10:50:27;;;;;;;;;;;;;;;28.37;40.94;96863.09;4990813;28;1158;-51
2021/07/31 10:52:52;;;;;;;;;;;;;;;28.46;41.23;96864.81;4989050;28;1902;-51
2021/07/31 10:55:20;;;;;;;;;;;;;;;28.51;40.81;96862.50;4989163;28;1608;-50
2021/07/31 10:57:57;;;;;;;;;;;;;;;28.48;40.78;96865.47;4986264;28;1560;-50
2021/07/31 11:00:26;;;;;;;;;;;;;;;28.41;41.13;96860.94;4990542;28;1175;-51
2021/07/31 11:02:51;;;;;;;;;;;;;;;28.42;40.98;96866.09;4985782;28;1496;-51
2021/07/31 11:05:16;;;;;;;;;;;;;;;28.46;41.09;96859.50;4989932;28;1241;-50
2021/07/31 11:07:57;;;;;;;;;;;;;;;28.48;40.92;96854.84;4988836;28;1487;-51
2021/07/31 11:10:43;;;;;;;;;;;;;;;28.30;41.35;96852.25;4987449;28;1589;-51
2021/07/31 11:13:09;;;;;;;;;;;;;;;28.52;40.88;96839.47;4987229;28;1969;-51
2021/07/31 11:15:34;;;;;;;;;;;;;;;28.74;40.38;96851.34;4989615;28;1467;-51
2021/07/31 11:18:00;;;;;;;;;;;;;;;28.36;41.44;96848.16;4989811;28;1071;-51
2021/07/31 11:20:25;;;;;;;;;;;;;;;28.41;41.18;96837.06;4985883;28;1615;-52
2021/07/31 11:22:51;;;;;;;;;;;;;;;28.57;40.89;96842.47;4989730;28;1360;-51
2021/07/31 11:25:17;;;;;;;;;;;;;;;28.52;40.74;96840.31;4969825;28;1561;-51
2021/07/31 11:27:51;;;;;;;;;;;;;;;28.46;41.18;96840.09;4977188;28;1464;-51
2021/07/31 11:30:16;;;;;;;;;;;;;;;28.35;41.19;96847.31;4990896;28;1482;-50
2021/07/31 11:32:42;;;;;;;;;;;;;;;28.57;40.71;96845.97;4992126;28;1958;-51
2021/07/31 11:35:07;;;;;;;;;;;;;;;28.59;40.70;96845.78;4992741;28;1569;-49
2021/07/31 11:37:32;;;;;;;;;;;;;;;28.62;40.67;96841.03;4992369;28;1014;-51
2021/07/31 11:40:03;;;;;;;;;;;;;;;28.44;41.06;96837.59;4993474;28;1529;-51
2021/07/31 11:42:31;;;;;;;;;;;;;;;28.46;41.20;96843.59;4991836;28;1707;-50
2021/07/31 11:45:01;;;;;;;;;;;;;;;28.65;40.66;96835.38;4972284;28;1994;-51
2021/07/31 11:47:30;;;;;;;;;;;;;;;28.52;40.97;96839.47;4994438;28;1182;-51
2021/07/31 11:49:55;;;;;;;;;;;;;;;28.57;40.94;96843.31;4993055;28;1137;-51
2021/07/31 11:52:20;;;;;;;;;;;;;;;28.46;41.18;96840.94;4976125;28;1964;-51
2021/07/31 11:54:46;;;;;;;;;;;;;;;28.35;41.41;96854.44;4972299;28;1637;-51
2021/07/31 11:57:13;;;;;;;;;;;;;;;28.50;41.01;96852.88;4989804;28;1532;-51
2021/07/31 11:59:39;;;;;;;;;;;;;;;28.47;41.05;96855.84;4974999;28;1151;-51
2021/07/31 12:02:04;;;;;;;;;;;;;;;28.46;41.03;96848.88;4974798;28;1311;-51
2021/07/31 12:04:50;;;;;;;;;;;;;;;28.51;40.99;96857.19;4991864;28;1509;-51
2021/07/31 12:07:17;;;;;;;;;;;;;;;28.57;40.95;96845.13;4993127;28;1198;-51
2021/07/31 12:09:43;;;;;;;;;;;;;;;28.57;40.65;96840.66;4991100;28;1373;-51
2021/07/31 12:12:24;;;;;;;;;;;;;;;28.60;40.74;96832.41;4990709;28;1972;-51
2021/07/31 12:15:08;;;;;;;;;;;;;;;28.63;40.80;96831.25;4992883;28;1115;-51
2021/07/31 12:17:33;;;;;;;;;;;;;;;28.41;41.06;96829.94;4992055;28;1292;-50
2021/07/31 12:19:59;;;;;;;;;;;;;;;28.64;40.68;96835.56;4976065;28;1229;-51
2021/07/31 12:22:28;;;;;;;;;;;;;;;28.56;40.83;96817.78;4988503;28;2245;-52
2021/07/31 12:25:06;;;;;;;;;;;;;;;28.66;40.71;96820.31;4992801;28;1074;-51
2021/07/31 12:27:47;;;;;;;;;;;;;;;28.57;40.77;96822.09;4990905;28;1651;-51
2021/07/31 12:30:38;;;;;;;;;;;;;;;28.52;40.94;96824.41;4992985;28;1324;-51
2021/07/31 12:33:06;;;;;;;;;;;;;;;28.41;40.92;96824.66;4988375;28;1923;-51
2021/07/31 12:35:32;;;;;;;;;;;;;;;28.47;41.07;96829.31;4991352;28;1596;-51
2021/07/31 12:37:57;;;;;;;;;;;;;;;28.70;40.38;96823.50;4928712;28;1554;-51
2021/07/31 12:40:22;;;;;;;;;;;;;;;28.88;39.98;96818.91;4991049;28;1737;-51
2021/07/31 12:42:47;;;;;;;;;;;;;;;28.59;40.71;96827.22;4991646;28;1397;-51
2021/07/31 12:45:13;;;;;;;;;;;;;;;28.36;41.23;96816.34;4991736;28;1416;-51
2021/07/31 12:47:38;;;;;;;;;;;;;;;28.48;41.01;96822.19;4992206;28;1174;-51
2021/07/31 12:50:03;;;;;;;;;;;;;;;28.59;40.69;96827.22;4990901;28;1639;-51
2021/07/31 12:52:28;;;;;;;;;;;;;;;28.42;40.88;96826.31;5019062;23;1974;-54
2021/07/31 12:54:53;;;;;;;;;;;;;;;28.50;40.69;96826.34;5031128;28;1687;-54